Time;durP1;ratioP1;P1;durP2;ratioP2;P2;SDS_P1;SDS_P2;PMS_P1;PMS_P2;Temp;Humidity;BMP_temperature;BMP_pressure;BME280_temperature;BME280_humidity;BME280_pressure;Samples;Min_cycle;Max_cycle;Signal;HPM_P1;HPM_P2
2021/12/07 00:00:45;;;;;;;;;;;16.70;99.90;;;;;;5040812;28;9380;-64
2021/12/07 00:03:12;;;;;;;;;;;16.80;99.90;;;;;;5040513;28;9376;-64
2021/12/07 00:05:38;;;;;;;;;;;16.70;99.90;;;;;;5039850;28;9569;-64
2021/12/07 00:08:04;;;;;;;;;;;16.70;99.90;;;;;;5041210;28;9426;-64
2021/12/07 00:10:31;;;;;;;;;;;16.60;99.90;;;;;;5040037;28;9360;-63
2021/12/07 00:12:58;;;;;;;;;;;16.50;99.90;;;;;;5041099;28;9372;-64
2021/12/07 00:15:24;;;;;;;;;;;16.50;99.90;;;;;;5057633;28;9419;-63
2021/12/07 00:17:51;;;;;;;;;;;16.60;99.90;;;;;;5060241;28;9453;-64
2021/12/07 00:20:18;;;;;;;;;;;16.70;99.90;;;;;;5059948;28;9422;-63
2021/12/07 00:22:48;;;;;;;;;;;16.70;99.90;;;;;;5060671;28;9438;-64
2021/12/07 00:25:14;;;;;;;;;;;16.70;99.90;;;;;;5060464;28;9348;-64
2021/12/07 00:27:40;;;;;;;;;;;16.70;99.90;;;;;;5059600;28;10106;-64
2021/12/07 00:30:07;;;;;;;;;;;16.80;99.90;;;;;;5044070;28;10056;-64
2021/12/07 00:32:38;;;;;;;;;;;16.70;99.90;;;;;;5038046;28;9482;-64
2021/12/07 00:37:51;;;;;;;;;;;16.60;99.90;;;;;;5040587;28;10061;-64
2021/12/07 00:40:18;;;;;;;;;;;16.80;99.90;;;;;;5038851;28;9380;-63
2021/12/07 00:42:45;;;;;;;;;;;16.90;99.90;;;;;;5037726;28;10170;-64
2021/12/07 00:45:13;;;;;;;;;;;16.90;99.90;;;;;;5056497;28;9371;-64
2021/12/07 00:47:39;;;;;;;;;;;17.00;99.90;;;;;;5058670;28;9383;-64
2021/12/07 00:50:06;;;;;;;;;;;17.00;99.90;;;;;;5058964;28;9419;-64
2021/12/07 00:52:32;;;;;;;;;;;17.00;99.90;;;;;;5043632;28;9392;-64
2021/12/07 00:54:58;;;;;;;;;;;17.10;99.90;;;;;;5060598;28;9400;-64
2021/12/07 00:57:25;;;;;;;;;;;17.10;99.90;;;;;;5076276;28;9499;-74
2021/12/07 00:59:51;;;;;;;;;;;17.10;99.90;;;;;;5055290;28;9433;-74
2021/12/07 01:02:18;;;;;;;;;;;17.20;99.90;;;;;;5050682;28;9393;-77
2021/12/07 01:04:52;;;;;;;;;;;17.20;99.90;;;;;;5004830;28;9547;-72
2021/12/07 01:07:48;;;;;;;;;;;17.20;99.90;;;;;;5019511;28;9450;-71
2021/12/07 01:26:31;;;;;;;;;;;17.80;99.90;;;;;;5083744;28;9397;-66
2021/12/07 01:28:58;;;;;;;;;;;17.80;99.90;;;;;;5080790;28;9402;-77
2021/12/07 01:31:34;;;;;;;;;;;17.80;99.90;;;;;;5064211;28;9548;-69
2021/12/07 01:45:07;;;;;;;;;;;18.20;99.90;;;;;;5077161;28;9417;-77
2021/12/07 01:52:53;;;;;;;;;;;18.30;99.90;;;;;;5058345;28;9381;-75
2021/12/07 02:00:31;;;;;;;;;;;18.50;99.90;;;;;;5079494;28;9393;-75
2021/12/07 02:02:57;;;;;;;;;;;18.50;99.90;;;;;;5097751;28;9397;-75
2021/12/07 02:05:24;;;;;;;;;;;18.40;99.90;;;;;;5097868;28;9434;-76
2021/12/07 02:07:50;;;;;;;;;;;18.50;99.90;;;;;;5099301;28;9390;-73
2021/12/07 02:10:21;;;;;;;;;;;18.60;99.90;;;;;;5080611;28;9413;-71
2021/12/07 02:12:49;;;;;;;;;;;18.70;99.90;;;;;;5098771;28;9385;-73
2021/12/07 02:15:17;;;;;;;;;;;18.80;99.90;;;;;;5078123;28;9483;-72
2021/12/07 02:17:43;;;;;;;;;;;19.00;99.90;;;;;;5077535;28;9385;-72
2021/12/07 02:20:10;;;;;;;;;;;19.00;99.90;;;;;;5060545;28;9386;-72
2021/12/07 02:22:36;;;;;;;;;;;19.00;99.90;;;;;;5077196;28;10206;-72
2021/12/07 02:25:05;;;;;;;;;;;19.10;99.90;;;;;;5060423;28;9378;-72
2021/12/07 02:27:32;;;;;;;;;;;19.20;99.90;;;;;;5059649;28;9435;-72
2021/12/07 02:29:58;;;;;;;;;;;19.30;99.90;;;;;;5074648;28;9406;-72
2021/12/07 02:32:25;;;;;;;;;;;19.40;99.90;;;;;;5097293;28;9420;-72
2021/12/07 02:35:00;;;;;;;;;;;19.50;99.90;;;;;;5072949;28;9443;-72
2021/12/07 02:37:28;;;;;;;;;;;19.50;99.90;;;;;;5057162;28;9387;-72
2021/12/07 02:39:54;;;;;;;;;;;19.60;99.90;;;;;;5061554;28;9372;-73
2021/12/07 02:42:20;;;;;;;;;;;19.60;99.90;;;;;;5059809;28;9402;-72
2021/12/07 02:44:47;;;;;;;;;;;19.60;99.90;;;;;;5056102;28;10130;-72
2021/12/07 02:47:13;;;;;;;;;;;19.70;99.90;;;;;;5039700;28;9442;-72
2021/12/07 02:49:39;;;;;;;;;;;19.80;99.90;;;;;;5041263;28;9384;-72
2021/12/07 02:52:05;;;;;;;;;;;19.80;99.90;;;;;;5042138;28;10077;-72
2021/12/07 02:54:32;;;;;;;;;;;19.60;99.90;;;;;;5040297;28;9389;-72
2021/12/07 02:56:58;;;;;;;;;;;19.70;99.90;;;;;;5039873;28;9559;-72
2021/12/07 02:59:26;;;;;;;;;;;19.80;99.90;;;;;;5066379;28;9424;-71
2021/12/07 03:02:01;;;;;;;;;;;19.80;99.90;;;;;;5061064;28;9469;-72
2021/12/07 03:04:34;;;;;;;;;;;20.00;99.90;;;;;;5060003;28;9375;-71
2021/12/07 03:28:25;;;;;;;;;;;21.00;99.90;;;;;;5042487;28;9403;-67
2021/12/07 03:30:51;;;;;;;;;;;21.10;99.90;;;;;;5061467;28;9392;-66
2021/12/07 03:33:17;;;;;;;;;;;21.10;99.90;;;;;;5060429;28;9462;-66
2021/12/07 03:35:43;;;;;;;;;;;21.20;99.90;;;;;;5082502;28;9441;-66
2021/12/07 03:38:10;;;;;;;;;;;21.30;99.90;;;;;;5100914;28;9528;-67
2021/12/07 03:40:36;;;;;;;;;;;21.20;99.90;;;;;;5099376;28;10190;-67
2021/12/07 03:43:02;;;;;;;;;;;21.30;99.90;;;;;;5082994;28;9439;-67
2021/12/07 03:45:29;;;;;;;;;;;21.40;99.90;;;;;;5080330;28;9385;-66
2021/12/07 03:47:56;;;;;;;;;;;21.30;99.90;;;;;;5044082;28;9416;-65
2021/12/07 03:50:22;;;;;;;;;;;21.80;99.90;;;;;;5062002;28;9440;-66
2021/12/07 03:52:49;;;;;;;;;;;22.50;99.90;;;;;;5080209;28;9412;-67
2021/12/07 03:55:15;;;;;;;;;;;23.00;99.90;;;;;;5062810;28;9369;-65
2021/12/07 03:57:42;;;;;;;;;;;23.00;99.90;;;;;;5061402;28;9448;-64
2021/12/07 04:00:09;;;;;;;;;;;22.30;99.90;;;;;;5078447;28;9397;-64
2021/12/07 04:02:40;;;;;;;;;;;22.40;99.90;;;;;;5099993;28;9385;-67
2021/12/07 04:05:11;;;;;;;;;;;22.50;99.90;;;;;;5089031;28;9411;-66
2021/12/07 04:07:37;;;;;;;;;;;22.70;99.90;;;;;;5081965;28;9412;-66
2021/12/07 04:10:04;;;;;;;;;;;22.50;99.90;;;;;;5065739;28;9377;-68
2021/12/07 04:12:30;;;;;;;;;;;22.20;99.90;;;;;;5100175;28;9390;-67
2021/12/07 04:14:56;;;;;;;;;;;22.30;99.90;;;;;;5084752;28;9370;-68
2021/12/07 04:17:25;;;;;;;;;;;22.40;99.90;;;;;;5079384;28;9444;-67
2021/12/07 04:19:51;;;;;;;;;;;22.40;99.90;;;;;;5062301;28;9499;-66
2021/12/07 04:22:18;;;;;;;;;;;22.50;99.90;;;;;;5080111;28;9354;-66
2021/12/07 04:24:44;;;;;;;;;;;22.40;99.90;;;;;;5061928;28;9377;-66
2021/12/07 04:27:10;;;;;;;;;;;22.50;99.90;;;;;;5061806;28;9439;-66
2021/12/07 04:29:36;;;;;;;;;;;22.50;99.90;;;;;;5055825;28;9415;-65
2021/12/07 04:32:03;;;;;;;;;;;22.70;99.90;;;;;;5080964;28;9459;-67
2021/12/07 04:34:29;;;;;;;;;;;22.80;99.90;;;;;;5099683;28;9482;-66
2021/12/07 04:36:55;;;;;;;;;;;22.80;99.90;;;;;;5099431;28;9443;-66
2021/12/07 04:39:21;;;;;;;;;;;22.80;99.90;;;;;;5099302;28;9382;-66
2021/12/07 04:41:49;;;;;;;;;;;22.90;99.90;;;;;;5100750;28;9447;-67
2021/12/07 04:44:15;;;;;;;;;;;23.00;99.90;;;;;;5091828;28;9430;-67
2021/12/07 04:57:44;;;;;;;;;;;23.40;98.20;;;;;;5078684;28;9405;-66
2021/12/07 05:00:12;;;;;;;;;;;23.40;97.90;;;;;;5064641;28;9443;-66
2021/12/07 05:02:41;;;;;;;;;;;23.30;97.70;;;;;;5095846;28;10209;-66
2021/12/07 05:05:09;;;;;;;;;;;23.50;98.20;;;;;;5071584;28;9378;-66
2021/12/07 05:07:41;;;;;;;;;;;23.70;98.10;;;;;;5099109;28;9369;-66
2021/12/07 05:10:16;;;;;;;;;;;23.80;97.50;;;;;;5083209;28;9378;-66
2021/12/07 05:15:57;;;;;;;;;;;24.00;96.20;;;;;;5080560;28;9421;-66
2021/12/07 05:34:41;;;;;;;;;;;24.40;94.30;;;;;;5099734;28;9409;-66
2021/12/07 05:39:52;;;;;;;;;;;24.50;93.40;;;;;;5099943;28;9465;-66
2021/12/07 05:42:19;;;;;;;;;;;24.60;92.90;;;;;;5064262;28;9393;-66
2021/12/07 05:44:54;;;;;;;;;;;24.50;92.60;;;;;;5085907;28;9549;-66
2021/12/07 05:47:21;;;;;;;;;;;24.60;93.00;;;;;;5060120;28;9428;-66
2021/12/07 05:49:47;;;;;;;;;;;24.50;94.50;;;;;;5079154;28;9389;-66
2021/12/07 05:52:13;;;;;;;;;;;24.50;94.30;;;;;;5079967;28;9373;-67
2021/12/07 05:54:39;;;;;;;;;;;24.60;93.50;;;;;;5079122;28;9385;-66
2021/12/07 05:57:06;;;;;;;;;;;24.60;93.70;;;;;;5079262;28;10000;-66
2021/12/07 05:59:32;;;;;;;;;;;24.70;93.80;;;;;;5089379;28;9535;-66
2021/12/07 06:01:58;;;;;;;;;;;24.70;93.30;;;;;;5099952;28;9482;-66
2021/12/07 06:04:25;;;;;;;;;;;24.70;93.40;;;;;;5079766;28;9365;-65
2021/12/07 06:06:51;;;;;;;;;;;24.80;93.40;;;;;;5099976;28;10185;-65
2021/12/07 06:09:17;;;;;;;;;;;24.80;92.90;;;;;;5099555;28;9420;-65
2021/12/07 06:11:45;;;;;;;;;;;24.80;93.00;;;;;;5098944;28;9532;-65
2021/12/07 06:14:17;;;;;;;;;;;24.90;92.70;;;;;;5075444;28;9414;-65
2021/12/07 06:16:43;;;;;;;;;;;25.00;93.00;;;;;;5082482;28;9413;-65
2021/12/07 06:19:10;;;;;;;;;;;25.10;92.90;;;;;;5083342;28;9369;-65
2021/12/07 06:21:36;;;;;;;;;;;25.30;92.10;;;;;;5064101;28;9505;-65
2021/12/07 06:24:02;;;;;;;;;;;25.10;91.30;;;;;;5062979;28;9409;-65
2021/12/07 06:26:29;;;;;;;;;;;25.10;91.40;;;;;;5045970;28;9528;-65
2021/12/07 06:28:55;;;;;;;;;;;25.20;91.50;;;;;;5070264;28;9397;-65
2021/12/07 06:31:21;;;;;;;;;;;25.20;91.60;;;;;;5102536;28;9373;-65
2021/12/07 06:33:47;;;;;;;;;;;25.00;90.70;;;;;;5102657;28;9354;-65
2021/12/07 06:36:15;;;;;;;;;;;25.10;91.70;;;;;;5068427;28;9428;-65
2021/12/07 06:38:41;;;;;;;;;;;25.10;91.80;;;;;;5060689;28;9403;-65
2021/12/07 06:41:08;;;;;;;;;;;25.40;92.10;;;;;;5062459;28;9481;-66
2021/12/07 06:43:34;;;;;;;;;;;25.50;91.50;;;;;;5058782;28;9436;-65
2021/12/07 06:46:00;;;;;;;;;;;25.70;91.00;;;;;;5040679;28;9392;-65
2021/12/07 06:48:26;;;;;;;;;;;25.60;90.10;;;;;;5039946;28;9474;-65
2021/12/07 06:50:53;;;;;;;;;;;25.30;91.20;;;;;;5041872;28;9468;-65
2021/12/07 06:53:19;;;;;;;;;;;25.50;91.00;;;;;;5040538;28;9447;-65
2021/12/07 06:55:45;;;;;;;;;;;25.40;91.00;;;;;;5040565;28;9408;-65
2021/12/07 06:58:11;;;;;;;;;;;25.50;91.20;;;;;;5042056;28;9379;-65
2021/12/07 07:00:38;;;;;;;;;;;25.60;91.10;;;;;;5060650;28;9384;-65
2021/12/07 07:03:04;;;;;;;;;;;25.60;91.10;;;;;;5075521;28;9376;-65
2021/12/07 07:05:31;;;;;;;;;;;25.60;91.40;;;;;;5061246;28;9367;-64
2021/12/07 07:07:57;;;;;;;;;;;25.50;90.80;;;;;;5061720;28;9437;-64
2021/12/07 07:10:24;;;;;;;;;;;25.40;91.30;;;;;;5061053;28;9392;-64
2021/12/07 07:12:50;;;;;;;;;;;25.40;92.10;;;;;;5061127;28;9410;-65
2021/12/07 07:15:16;;;;;;;;;;;25.40;91.60;;;;;;5043733;28;9487;-65
2021/12/07 07:17:42;;;;;;;;;;;25.40;92.20;;;;;;5040593;28;9408;-65
2021/12/07 07:20:10;;;;;;;;;;;25.40;90.70;;;;;;5039941;28;9519;-65
2021/12/07 07:22:36;;;;;;;;;;;25.30;90.70;;;;;;5040393;28;9400;-65
2021/12/07 07:25:03;;;;;;;;;;;25.20;90.20;;;;;;5040647;28;9392;-65
2021/12/07 07:27:30;;;;;;;;;;;25.40;90.80;;;;;;5040681;28;9404;-66
2021/12/07 07:29:56;;;;;;;;;;;25.30;90.80;;;;;;5053077;28;9431;-65
2021/12/07 07:32:22;;;;;;;;;;;25.40;91.00;;;;;;5060189;28;10103;-65
2021/12/07 07:34:48;;;;;;;;;;;25.30;90.70;;;;;;5061781;28;9427;-65
2021/12/07 07:37:15;;;;;;;;;;;25.40;91.20;;;;;;5101591;28;9394;-65
2021/12/07 07:39:41;;;;;;;;;;;25.40;91.30;;;;;;5100359;28;9570;-65
2021/12/07 07:42:09;;;;;;;;;;;25.40;91.40;;;;;;5065849;28;9406;-65
2021/12/07 07:44:35;;;;;;;;;;;25.50;89.70;;;;;;5087743;28;9408;-65
2021/12/07 07:47:02;;;;;;;;;;;25.40;90.50;;;;;;5060229;28;10116;-65
2021/12/07 07:49:28;;;;;;;;;;;25.40;90.20;;;;;;5079115;28;9419;-65
2021/12/07 07:51:54;;;;;;;;;;;25.30;90.70;;;;;;5081330;28;9369;-65
2021/12/07 07:54:21;;;;;;;;;;;25.50;91.00;;;;;;5062595;28;9499;-65
2021/12/07 07:56:47;;;;;;;;;;;25.60;89.80;;;;;;5080443;28;9421;-65
2021/12/07 07:59:13;;;;;;;;;;;25.60;88.40;;;;;;5089166;28;9463;-65
2021/12/07 08:01:40;;;;;;;;;;;25.60;89.30;;;;;;5082134;28;9369;-65
2021/12/07 08:04:06;;;;;;;;;;;25.60;89.60;;;;;;5090310;28;9422;-65
2021/12/07 08:06:34;;;;;;;;;;;25.60;90.50;;;;;;5099802;28;9542;-65
2021/12/07 08:09:00;;;;;;;;;;;25.60;90.00;;;;;;5100239;28;9381;-65
2021/12/07 08:11:26;;;;;;;;;;;25.60;89.10;;;;;;5081928;28;9402;-65
2021/12/07 08:13:52;;;;;;;;;;;25.50;90.30;;;;;;5094958;28;9397;-65
2021/12/07 08:16:18;;;;;;;;;;;25.60;89.20;;;;;;5080130;28;9420;-65
2021/12/07 08:18:45;;;;;;;;;;;25.60;89.20;;;;;;5080030;28;9373;-65
2021/12/07 08:21:12;;;;;;;;;;;25.60;89.60;;;;;;5045805;28;9361;-64
2021/12/07 08:23:38;;;;;;;;;;;25.60;88.60;;;;;;5079521;28;10820;-65
2021/12/07 08:26:05;;;;;;;;;;;25.60;90.00;;;;;;5079421;28;9474;-65
2021/12/07 08:28:31;;;;;;;;;;;25.60;89.00;;;;;;5064517;28;9549;-65
2021/12/07 08:30:57;;;;;;;;;;;25.60;88.30;;;;;;5100697;28;9366;-65
2021/12/07 08:33:24;;;;;;;;;;;25.70;88.10;;;;;;5099436;28;9381;-65
2021/12/07 08:35:50;;;;;;;;;;;25.80;87.90;;;;;;5068572;28;9433;-65
2021/12/07 08:38:17;;;;;;;;;;;25.80;86.50;;;;;;5059685;28;9371;-65
2021/12/07 08:40:44;;;;;;;;;;;25.90;86.80;;;;;;5041170;28;13715;-65
2021/12/07 08:43:12;;;;;;;;;;;25.70;86.70;;;;;;5056249;28;13524;-65
2021/12/07 08:45:41;;;;;;;;;;;25.60;87.10;;;;;;5021288;28;13242;-65
2021/12/07 08:48:08;;;;;;;;;;;25.60;88.80;;;;;;5011449;28;13318;-66
2021/12/07 08:50:34;;;;;;;;;;;25.60;88.10;;;;;;5007263;28;13517;-65
2021/12/07 08:53:03;;;;;;;;;;;25.70;87.20;;;;;;5021346;28;13805;-65
2021/12/07 09:01:01;;;;;;;;;;;25.70;87.10;;;;;;5043342;28;13906;-65
2021/12/07 09:03:27;;;;;;;;;;;25.70;88.50;;;;;;5042683;28;14753;-65
2021/12/07 09:05:54;;;;;;;;;;;25.60;89.20;;;;;;5042782;28;14007;-66
2021/12/07 09:08:20;;;;;;;;;;;25.60;88.00;;;;;;5042419;28;13884;-65
2021/12/07 09:10:49;;;;;;;;;;;25.80;89.40;;;;;;5042990;28;13923;-65
2021/12/07 09:13:15;;;;;;;;;;;25.80;89.40;;;;;;5044722;28;13904;-65
2021/12/07 09:15:42;;;;;;;;;;;25.90;88.60;;;;;;5041737;28;13963;-66
2021/12/07 09:18:08;;;;;;;;;;;25.90;87.80;;;;;;5043469;28;14100;-65
2021/12/07 09:20:34;;;;;;;;;;;25.80;88.50;;;;;;5044172;28;13937;-66
2021/12/07 09:23:00;;;;;;;;;;;25.70;88.50;;;;;;5059801;28;14679;-65
2021/12/07 09:25:27;;;;;;;;;;;25.70;89.60;;;;;;5042425;28;13958;-66
2021/12/07 09:27:53;;;;;;;;;;;25.70;90.20;;;;;;5043221;28;13900;-66
2021/12/07 09:30:20;;;;;;;;;;;25.80;90.10;;;;;;5025446;28;13957;-65
2021/12/07 09:32:46;;;;;;;;;;;25.70;90.30;;;;;;5023586;28;13985;-65
2021/12/07 09:35:12;;;;;;;;;;;25.80;90.70;;;;;;5033430;28;13858;-65
2021/12/07 09:37:39;;;;;;;;;;;25.70;91.70;;;;;;5066321;28;13838;-65
2021/12/07 09:40:07;;;;;;;;;;;25.60;91.60;;;;;;5067379;28;13822;-66
2021/12/07 09:42:33;;;;;;;;;;;25.60;91.00;;;;;;5049252;28;13910;-65
2021/12/07 09:44:59;;;;;;;;;;;25.60;90.60;;;;;;5082995;28;13820;-65
2021/12/07 09:47:25;;;;;;;;;;;25.50;90.50;;;;;;5088472;28;13850;-65
2021/12/07 09:49:51;;;;;;;;;;;25.50;90.40;;;;;;5089258;28;13933;-65
2021/12/07 09:52:18;;;;;;;;;;;25.50;90.80;;;;;;5089830;28;13924;-65
2021/12/07 09:54:44;;;;;;;;;;;25.50;90.90;;;;;;5089574;28;13789;-65
2021/12/07 09:57:11;;;;;;;;;;;25.40;91.30;;;;;;5071965;28;13814;-65
2021/12/07 09:59:38;;;;;;;;;;;25.30;91.50;;;;;;5078056;28;14689;-65
2021/12/07 10:02:07;;;;;;;;;;;25.40;91.20;;;;;;5051581;28;13831;-65
2021/12/07 10:04:33;;;;;;;;;;;25.30;91.30;;;;;;5051313;28;13800;-65
2021/12/07 10:07:00;;;;;;;;;;;25.20;91.80;;;;;;5070262;28;13792;-66
2021/12/07 10:09:27;;;;;;;;;;;25.20;91.90;;;;;;5069664;28;13800;-66
2021/12/07 10:11:53;;;;;;;;;;;25.10;92.30;;;;;;5051601;28;13911;-65
2021/12/07 10:14:19;;;;;;;;;;;25.00;92.30;;;;;;5079122;28;13810;-65
2021/12/07 10:16:46;;;;;;;;;;;24.90;92.80;;;;;;5090381;28;13808;-65
2021/12/07 10:19:15;;;;;;;;;;;24.90;93.20;;;;;;5071842;28;13804;-65
2021/12/07 10:21:43;;;;;;;;;;;24.80;93.60;;;;;;5071052;28;13777;-65
2021/12/07 10:24:11;;;;;;;;;;;24.70;94.30;;;;;;5071143;28;13798;-65
2021/12/07 10:26:39;;;;;;;;;;;24.60;94.90;;;;;;5088816;28;13847;-65
2021/12/07 10:29:08;;;;;;;;;;;24.50;94.50;;;;;;5063232;28;13828;-65
2021/12/07 10:31:36;;;;;;;;;;;24.40;95.10;;;;;;5068338;28;13769;-65
2021/12/07 10:34:03;;;;;;;;;;;24.40;95.40;;;;;;5051443;28;13792;-65
2021/12/07 10:36:37;;;;;;;;;;;24.30;95.30;;;;;;5067776;28;13948;-65
2021/12/07 10:39:06;;;;;;;;;;;24.20;95.40;;;;;;5050903;28;13807;-65
2021/12/07 10:41:33;;;;;;;;;;;24.00;95.70;;;;;;5068210;28;13820;-65
2021/12/07 10:44:01;;;;;;;;;;;24.00;96.30;;;;;;5074724;28;13805;-65
2021/12/07 10:46:34;;;;;;;;;;;23.90;96.00;;;;;;5087878;28;13817;-65
2021/12/07 10:49:11;;;;;;;;;;;23.80;95.80;;;;;;5088408;28;13783;-65
2021/12/07 10:51:38;;;;;;;;;;;23.80;96.20;;;;;;5087679;28;13845;-65
2021/12/07 10:54:04;;;;;;;;;;;23.70;96.50;;;;;;5069628;28;13826;-65
2021/12/07 10:56:31;;;;;;;;;;;23.70;96.70;;;;;;5086989;28;13923;-65
2021/12/07 10:59:01;;;;;;;;;;;23.60;97.50;;;;;;5080540;28;14475;-65
2021/12/07 11:01:31;;;;;;;;;;;23.60;97.90;;;;;;5059705;28;13993;-65
2021/12/07 11:04:15;;;;;;;;;;;23.50;98.70;;;;;;5070500;28;13837;-65
2021/12/07 11:06:59;;;;;;;;;;;23.40;99.20;;;;;;5070242;28;13705;-65
2021/12/07 11:09:26;;;;;;;;;;;23.40;98.80;;;;;;5069620;28;13731;-65
2021/12/07 11:12:05;;;;;;;;;;;23.20;99.90;;;;;;5052029;28;13043;-65
2021/12/07 11:14:49;;;;;;;;;;;23.10;99.90;;;;;;5080675;28;11640;-65
2021/12/07 11:17:16;;;;;;;;;;;23.00;99.90;;;;;;5090434;28;11780;-65
2021/12/07 11:19:42;;;;;;;;;;;22.90;99.90;;;;;;5071940;28;10993;-65
2021/12/07 11:22:11;;;;;;;;;;;22.90;99.90;;;;;;5090217;28;12342;-65
2021/12/07 11:24:38;;;;;;;;;;;22.80;99.80;;;;;;5070456;28;13256;-65
2021/12/07 11:29:56;;;;;;;;;;;22.80;99.90;;;;;;5074574;28;13104;-65
2021/12/07 11:32:22;;;;;;;;;;;22.70;99.90;;;;;;5067646;28;12936;-65
2021/12/07 11:34:49;;;;;;;;;;;22.50;99.90;;;;;;5066767;28;13834;-65
2021/12/07 11:37:15;;;;;;;;;;;22.40;99.90;;;;;;5067862;28;13543;-65
2021/12/07 11:39:52;;;;;;;;;;;22.50;99.90;;;;;;5066933;28;13788;-65
2021/12/07 11:42:22;;;;;;;;;;;22.50;99.90;;;;;;5066777;28;14499;-65
2021/12/07 11:44:50;;;;;;;;;;;22.50;99.90;;;;;;5079471;28;13805;-65
2021/12/07 11:47:17;;;;;;;;;;;22.50;99.90;;;;;;5085824;28;13880;-65
2021/12/07 11:49:43;;;;;;;;;;;22.50;99.90;;;;;;5067446;28;13813;-65
2021/12/07 11:52:09;;;;;;;;;;;22.50;99.90;;;;;;5089292;28;13348;-65
2021/12/07 11:54:37;;;;;;;;;;;22.30;99.90;;;;;;5095707;28;8140;-65
2021/12/07 11:57:03;;;;;;;;;;;22.30;99.90;;;;;;5076241;28;7994;-65
2021/12/07 11:59:29;;;;;;;;;;;22.20;99.90;;;;;;5083982;28;7833;-65
2021/12/07 12:01:56;;;;;;;;;;;22.20;99.90;;;;;;5074000;28;9636;-65
2021/12/07 12:04:22;;;;;;;;;;;22.20;99.90;;;;;;5072579;28;7588;-65
2021/12/07 12:06:51;;;;;;;;;;;22.10;99.90;;;;;;5072126;28;8001;-65
2021/12/07 12:09:18;;;;;;;;;;;22.10;99.90;;;;;;5054387;28;8078;-66
2021/12/07 12:11:53;;;;;;;;;;;22.10;99.90;;;;;;5073064;28;8004;-65
2021/12/07 12:14:37;;;;;;;;;;;22.00;99.90;;;;;;5082806;28;8133;-65
2021/12/07 12:17:14;;;;;;;;;;;21.90;99.90;;;;;;5091414;28;8089;-65
2021/12/07 12:19:43;;;;;;;;;;;22.00;99.90;;;;;;5072993;28;7971;-65
2021/12/07 12:22:17;;;;;;;;;;;22.00;99.90;;;;;;5090878;28;7597;-65
2021/12/07 12:24:48;;;;;;;;;;;22.00;99.90;;;;;;5073183;28;8156;-65
2021/12/07 12:27:27;;;;;;;;;;;22.00;99.90;;;;;;5090603;28;7935;-65
2021/12/07 12:29:54;;;;;;;;;;;21.90;99.90;;;;;;5073797;28;8252;-65
2021/12/07 12:32:35;;;;;;;;;;;21.90;99.90;;;;;;5067644;28;9736;-65
2021/12/07 12:35:03;;;;;;;;;;;21.80;99.90;;;;;;5049413;28;8710;-65
2021/12/07 12:37:31;;;;;;;;;;;21.80;99.90;;;;;;5066388;28;7927;-65
2021/12/07 12:39:58;;;;;;;;;;;21.70;99.90;;;;;;5066784;28;7546;-65
2021/12/07 12:42:38;;;;;;;;;;;21.70;99.90;;;;;;5049532;28;8124;-65
2021/12/07 12:45:21;;;;;;;;;;;21.70;99.90;;;;;;5083204;28;8064;-65
2021/12/07 12:48:07;;;;;;;;;;;21.70;99.90;;;;;;5086850;28;7836;-65
2021/12/07 12:50:46;;;;;;;;;;;21.80;99.90;;;;;;5085996;28;8150;-65
2021/12/07 12:53:12;;;;;;;;;;;21.60;99.90;;;;;;5085213;28;9313;-66
2021/12/07 12:55:41;;;;;;;;;;;21.50;99.90;;;;;;5083989;28;9239;-65
2021/12/07 12:58:12;;;;;;;;;;;21.50;99.90;;;;;;5086655;28;9862;-65
2021/12/07 13:00:57;;;;;;;;;;;21.40;99.90;;;;;;5065084;28;8903;-65
2021/12/07 13:03:25;;;;;;;;;;;21.40;99.90;;;;;;5062809;28;11577;-65
2021/12/07 13:06:00;;;;;;;;;;;21.50;99.90;;;;;;5061533;28;13841;-65
2021/12/07 13:08:26;;;;;;;;;;;21.40;99.90;;;;;;5060645;28;13824;-65
2021/12/07 13:10:59;;;;;;;;;;;21.40;99.90;;;;;;5042660;28;13910;-65
2021/12/07 13:13:26;;;;;;;;;;;21.30;99.90;;;;;;5061488;28;13815;-65
2021/12/07 13:15:52;;;;;;;;;;;21.30;99.90;;;;;;5080141;28;13783;-65
2021/12/07 13:18:20;;;;;;;;;;;21.20;99.90;;;;;;5061047;28;13844;-65
2021/12/07 13:20:50;;;;;;;;;;;21.30;99.90;;;;;;5079022;28;13825;-65
2021/12/07 13:23:16;;;;;;;;;;;21.30;99.90;;;;;;5060936;28;13814;-65
2021/12/07 13:25:44;;;;;;;;;;;21.10;99.90;;;;;;5077598;28;13786;-65
2021/12/07 13:28:21;;;;;;;;;;;21.10;99.90;;;;;;5078691;28;13759;-66
2021/12/07 13:30:58;;;;;;;;;;;21.00;99.90;;;;;;5027562;28;11934;-65
2021/12/07 13:33:24;;;;;;;;;;;21.00;99.90;;;;;;5050328;28;11957;-66
2021/12/07 13:35:51;;;;;;;;;;;20.90;99.90;;;;;;5029632;28;14171;-65
2021/12/07 13:38:28;;;;;;;;;;;20.90;99.90;;;;;;5018985;28;13956;-66
2021/12/07 13:41:14;;;;;;;;;;;21.00;99.90;;;;;;5019256;28;13976;-66
2021/12/07 13:43:41;;;;;;;;;;;21.00;99.90;;;;;;5022143;28;14563;-65
2021/12/07 13:46:17;;;;;;;;;;;21.00;99.90;;;;;;5039034;28;13950;-65
2021/12/07 13:48:43;;;;;;;;;;;21.00;99.90;;;;;;5039488;28;13997;-65
2021/12/07 13:51:10;;;;;;;;;;;21.00;99.90;;;;;;5038555;28;14023;-65
2021/12/07 13:53:37;;;;;;;;;;;20.90;99.90;;;;;;5038207;28;13936;-65
2021/12/07 13:56:03;;;;;;;;;;;20.90;99.90;;;;;;5039067;28;14009;-65
2021/12/07 13:58:33;;;;;;;;;;;20.80;99.90;;;;;;5037175;28;13898;-65
2021/12/07 14:01:00;;;;;;;;;;;20.90;99.90;;;;;;5040177;28;13884;-65
2021/12/07 14:03:26;;;;;;;;;;;20.80;99.90;;;;;;5053670;28;13772;-65
2021/12/07 14:05:53;;;;;;;;;;;20.90;99.90;;;;;;5038607;28;13930;-65
2021/12/07 14:08:19;;;;;;;;;;;20.90;99.90;;;;;;5039054;28;13922;-65
2021/12/07 14:10:46;;;;;;;;;;;20.80;99.90;;;;;;5044371;28;13956;-65
2021/12/07 14:13:13;;;;;;;;;;;20.60;99.90;;;;;;5050305;28;7530;-65
2021/12/07 14:15:40;;;;;;;;;;;20.60;99.90;;;;;;5028296;28;7984;-65
2021/12/07 14:18:07;;;;;;;;;;;20.40;99.90;;;;;;5029671;28;7811;-65
2021/12/07 14:20:41;;;;;;;;;;;20.50;99.90;;;;;;5028168;28;8375;-65
2021/12/07 14:23:17;;;;;;;;;;;20.50;99.90;;;;;;5029295;28;7963;-65
2021/12/07 14:25:53;;;;;;;;;;;20.60;99.90;;;;;;5029777;28;8029;-65
2021/12/07 14:28:22;;;;;;;;;;;20.60;99.90;;;;;;5032279;28;7531;-65
2021/12/07 14:30:51;;;;;;;;;;;20.50;99.90;;;;;;5052297;28;7973;-65
2021/12/07 14:33:18;;;;;;;;;;;20.50;99.90;;;;;;5050664;28;7922;-65
2021/12/07 14:35:44;;;;;;;;;;;20.50;99.90;;;;;;5070518;28;8213;-65
2021/12/07 14:38:10;;;;;;;;;;;20.50;99.90;;;;;;5096223;28;8152;-65
2021/12/07 14:40:39;;;;;;;;;;;20.50;99.90;;;;;;5096081;28;8026;-65
2021/12/07 14:43:05;;;;;;;;;;;20.50;99.90;;;;;;5078915;28;7962;-65
2021/12/07 14:45:32;;;;;;;;;;;20.40;99.90;;;;;;5096355;28;8211;-65
2021/12/07 14:47:58;;;;;;;;;;;20.40;99.90;;;;;;5096354;28;7877;-65
2021/12/07 14:50:25;;;;;;;;;;;20.40;99.90;;;;;;5077846;28;7925;-65
2021/12/07 14:52:51;;;;;;;;;;;20.40;99.90;;;;;;5096375;28;7997;-65
2021/12/07 14:55:18;;;;;;;;;;;20.40;99.90;;;;;;5096958;28;7565;-65
2021/12/07 14:57:44;;;;;;;;;;;20.30;99.90;;;;;;5096571;28;8027;-65
2021/12/07 15:00:11;;;;;;;;;;;20.30;99.90;;;;;;5079920;28;8132;-65
2021/12/07 15:02:37;;;;;;;;;;;20.30;99.90;;;;;;5048341;28;8940;-65
2021/12/07 15:05:05;;;;;;;;;;;20.20;99.90;;;;;;5076327;28;7749;-65
2021/12/07 15:07:32;;;;;;;;;;;20.30;99.90;;;;;;5059052;28;8580;-65
2021/12/07 15:09:59;;;;;;;;;;;20.20;99.90;;;;;;5077248;28;7546;-65
2021/12/07 15:12:26;;;;;;;;;;;20.30;99.90;;;;;;5076417;28;7774;-65
2021/12/07 15:15:01;;;;;;;;;;;20.10;99.90;;;;;;5090489;28;8001;-65
2021/12/07 15:17:28;;;;;;;;;;;20.20;99.90;;;;;;5096581;28;7978;-65
2021/12/07 15:19:54;;;;;;;;;;;20.20;99.90;;;;;;5097008;28;8210;-65
2021/12/07 15:22:22;;;;;;;;;;;20.20;99.90;;;;;;5097171;28;7537;-65
2021/12/07 15:24:48;;;;;;;;;;;20.20;99.90;;;;;;5096729;28;8909;-65
2021/12/07 15:27:14;;;;;;;;;;;20.20;99.90;;;;;;5096519;28;9834;-65
2021/12/07 15:29:40;;;;;;;;;;;20.20;99.90;;;;;;5083704;28;8068;-65
2021/12/07 15:32:08;;;;;;;;;;;20.20;99.90;;;;;;5057572;28;9146;-65
2021/12/07 15:34:36;;;;;;;;;;;20.20;99.90;;;;;;5056892;28;8298;-65
2021/12/07 15:37:10;;;;;;;;;;;20.20;99.90;;;;;;5075519;28;8151;-65
2021/12/07 15:39:41;;;;;;;;;;;20.20;99.90;;;;;;5056679;28;7975;-65
2021/12/07 15:42:11;;;;;;;;;;;20.20;99.90;;;;;;5056961;28;8090;-65
2021/12/07 15:44:38;;;;;;;;;;;20.10;99.90;;;;;;5085928;28;7996;-65
2021/12/07 15:47:06;;;;;;;;;;;20.10;99.90;;;;;;5076041;28;10047;-65
2021/12/07 15:49:39;;;;;;;;;;;19.90;99.90;;;;;;5094055;28;8300;-65
2021/12/07 15:52:10;;;;;;;;;;;20.00;99.90;;;;;;5093887;28;7529;-63
2021/12/07 15:54:37;;;;;;;;;;;20.10;99.90;;;;;;5093811;28;9519;-63
2021/12/07 15:57:03;;;;;;;;;;;20.10;99.90;;;;;;5093590;28;8400;-63
2021/12/07 15:59:29;;;;;;;;;;;20.10;99.90;;;;;;5082842;28;8024;-63
2021/12/07 16:01:56;;;;;;;;;;;20.10;99.90;;;;;;5055266;28;8302;-63
2021/12/07 16:04:36;;;;;;;;;;;20.10;99.90;;;;;;5073048;28;7526;-63
2021/12/07 16:07:03;;;;;;;;;;;20.20;99.90;;;;;;5073182;28;7534;-63
2021/12/07 16:09:30;;;;;;;;;;;20.20;99.90;;;;;;5072609;28;8033;-63
2021/12/07 16:12:16;;;;;;;;;;;20.10;99.90;;;;;;5055053;28;7950;-63
2021/12/07 16:14:42;;;;;;;;;;;20.10;99.90;;;;;;5084369;28;7946;-63